• Join FlightAware (Why Join?)
  • Login
  • US Flag 
10:15AM EDT


 

Airport Tracker/Info


-or-


 

Live Flight TrackerFlight Track Log ✈ AAL2467 ✈ 19-Apr-2013 ✈ KDFW - KLAX

Flight Track Log - Related Links

Times and Time Zones

All times are in EDT time to prevent confusion due to time zone crossing. See the AAL2467 flight status page for this flight to view local times or setup timezone preferences in your user account.

Time Position Orientation Groundspeed Altitude Reporting Facility
EDT Latitude Longitude Course Direction KTS MPH feet Rate Location/Type
06:53PM 32.9667 -97.0667 295° West 197 227 2,900  Level Dallas / Fort Worth TRACON
06:54PM 32.6907 -97.0779 248° West  Level FlightAware Approximate
06:54PM 33.0167 -97.1167 320° Northwest 247 284 4,700  Level Dallas / Fort Worth TRACON
06:55PM 32.6833 -97.2009 270° West  Level FlightAware Approximate
06:55PM 33.0000 -97.2000 257° West 254 292 7,000  Level Dallas / Fort Worth TRACON
06:56PM 32.7123 -97.3172 293° West  Level FlightAware Approximate
06:56PM 32.9919 -97.2622 261° West 272 313 8,700  Level Fort Worth Center
06:57PM 32.7540 -97.4318 293° West  Level FlightAware Approximate
06:57PM 32.9711 -97.3442 253° West 286 329 10,800  Level Fort Worth Center
06:58PM 32.7971 -97.5457 295° West  Level FlightAware Approximate
06:58PM 32.9419 -97.4531 252° West 310 357 12,400  Level Fort Worth Center
06:59PM 32.9147 -97.5519 252° West 343 395 14,600 2,400 Climbing Fort Worth Center
07:00PM 32.8833 -97.6633 251° West 354 407 17,200 2,400 Climbing Fort Worth Center
07:01PM 32.8642 -97.7967 260° West 361 415 19,400 1,980 Climbing Fort Worth Center
07:02PM 32.8636 -97.9106 270° West 380 437 21,200 1,860 Climbing Fort Worth Center
07:03PM 32.8631 -98.0539 270° West 391 450 23,200 1,860 Climbing Fort Worth Center
07:04PM 32.8622 -98.1925 270° West 405 466 25,000 1,620 Climbing Fort Worth Center
07:05PM 32.8592 -98.3286 269° West 416 479 26,500 1,500 Climbing Fort Worth Center
07:06PM 32.8603 -98.4644 271° West 428 493 28,100 1,560 Climbing Fort Worth Center
07:07PM 32.8842 -98.6008 282° West 421 484 29,700 1,740 Climbing Fort Worth Center
07:08PM 32.9161 -98.7325 286° West 421 484 31,600 1,620 Climbing Fort Worth Center
07:09PM 32.9481 -98.8617 286° West 415 478 33,000 1,200 Climbing Fort Worth Center
07:10PM 32.9819 -98.9911 287° West 415 478 34,000 480 Climbing Fort Worth Center
07:11PM 33.0097 -99.1178 285° West 410 472 34,000  Level Fort Worth Center
07:12PM 33.0392 -99.2422 286° West 399 459 34,000  Level Fort Worth Center
07:13PM 33.0706 -99.3694 286° West 399 459 34,000  Level Fort Worth Center
07:14PM 33.1000 -99.4964 286° West 399 459 34,000  Level Fort Worth Center
07:15PM 33.1289 -99.6236 285° West 399 459 34,000  Level Fort Worth Center
07:16PM 33.1600 -99.7533 286° West 399 459 34,000  Level Fort Worth Center
07:17PM 33.1889 -99.8833 285° West 399 459 34,000  Level Fort Worth Center
07:18PM 33.2197 -100.0108 286° West 399 459 34,000  Level Fort Worth Center
07:19PM 33.2483 -100.1408 285° West 399 459 34,000  Level Fort Worth Center
07:20PM 33.2767 -100.2683 285° West 399 459 34,000  Level Fort Worth Center
07:21PM 33.3069 -100.4011 285° West 399 459 34,000  Level Fort Worth Center
07:22PM 33.3372 -100.5314 286° West 399 459 34,000  Level Fort Worth Center
07:23PM 33.3653 -100.6617 284° West 399 459 34,000  Level Fort Worth Center
07:24PM 33.3931 -100.7919 284° West 399 459 34,000  Level Fort Worth Center
07:25PM 33.4228 -100.9225 285° West 399 459 34,000  Level Fort Worth Center
07:26PM 33.4489 -101.0381 285° West 399 459 34,000  Level Fort Worth Center
07:27PM 33.4800 -101.1814 285° West 399 459 34,000 -240 Level Fort Worth Center
07:28PM 33.5058 -101.2969 285° West 399 459 33,600 -480 Descending Fort Worth Center
07:29PM 33.5347 -101.4403 284° West 399 459 33,100 -540 Descending Fort Worth Center
07:30PM 33.5600 -101.5586 284° West 399 459 32,600 -480 Descending Fort Worth Center
07:31PM 33.5908 -101.6922 286° West 406 467 32,200 -300 Descending Fort Worth Center
07:32PM 33.6197 -101.8258 285° West 406 467 32,000 -120 Descending Fort Worth Center
07:33PM 33.6478 -101.9744 283° West 411 473 32,000  Level Fort Worth Center
07:34PM 33.6725 -102.0931 284° West 418 481 32,000  Level Fort Worth Center
07:35PM 33.7028 -102.2344 284° West 413 475 32,000  Level Fort Worth Center
07:36PM 33.7308 -102.3683 284° West 413 475 32,000  Level Fort Worth Center
07:37PM 33.7589 -102.5022 284° West 413 475 32,000  Level Fort Worth Center
07:38PM 33.7986 -102.6942 284° West 410 472 32,000  Level Albuquerque Center
07:39PM 33.8308 -102.8525 284° West 410 472 32,000  Level Albuquerque Center
07:40PM 33.8572 -102.9844 284° West 408 470 32,000  Level Albuquerque Center
07:41PM 33.8853 -103.1131 285° West 403 464 32,000  Level Albuquerque Center
07:43PM 33.9108 -103.2444 283° West 402 463 32,000  Level Albuquerque Center
07:44PM 33.9364 -103.3769 283° West 407 468 32,000  Level Albuquerque Center
07:45PM 33.9619 -103.5075 283° West 404 465 32,000  Level Albuquerque Center
07:46PM 33.9867 -103.6406 283° West 406 467 32,000  Level Albuquerque Center
07:47PM 34.0186 -103.8044 283° West 407 468 32,000  Level Albuquerque Center
07:48PM 34.0439 -103.9389 283° West 407 468 32,000  Level Albuquerque Center
07:49PM 34.0692 -104.0719 283° West 405 466 32,000  Level Albuquerque Center
07:50PM 34.0956 -104.2019 284° West 399 459 32,000  Level Albuquerque Center
07:51PM 34.1197 -104.3350 282° West 401 461 32,000  Level Albuquerque Center
07:52PM 34.1453 -104.4661 283° West 399 459 32,000  Level Albuquerque Center
07:53PM 34.1697 -104.5986 283° West 400 460 32,000  Level Albuquerque Center
07:54PM 34.1956 -104.7317 283° West 401 461 32,000  Level Albuquerque Center
07:55PM 34.2200 -104.8664 282° West 405 466 32,000  Level Albuquerque Center
07:56PM 34.2453 -104.9972 283° West 400 460 32,000  Level Albuquerque Center
07:57PM 34.2686 -105.1275 282° West 396 456 32,000  Level Albuquerque Center
07:58PM 34.2911 -105.2567 282° West 391 450 32,000  Level Albuquerque Center
07:59PM 34.3181 -105.4078 282° West 391 450 32,000  Level Albuquerque Center
08:00PM 34.3431 -105.5386 283° West 393 452 32,000  Level Albuquerque Center
08:01PM 34.3656 -105.6703 282° West 396 456 32,000  Level Albuquerque Center
08:02PM 34.3714 -105.8078 273° West 402 463 32,000  Level Albuquerque Center
08:03PM 34.3756 -105.9464 272° West 408 470 32,000  Level Albuquerque Center
08:04PM 34.3792 -106.0822 272° West 402 463 32,000  Level Albuquerque Center
08:05PM 34.3814 -106.2186 271° West 401 461 32,000  Level Albuquerque Center
08:06PM 34.3844 -106.3464 272° West 404 465 32,000  Level Albuquerque Center
08:07PM 34.3878 -106.4828 272° West 404 465 32,000  Level Albuquerque Center
08:08PM 34.3922 -106.6414 272° West 395 455 32,000  Level Albuquerque Center
08:09PM 34.3953 -106.7778 272° West 400 460 32,000  Level Albuquerque Center
08:10PM 34.3975 -106.9144 271° West 403 464 32,000  Level Albuquerque Center
08:11PM 34.4000 -107.0519 271° West 407 468 32,000  Level Albuquerque Center
08:12PM 34.4031 -107.1922 272° West 411 473 32,000  Level Albuquerque Center
08:13PM 34.4064 -107.3306 272° West 411 473 32,000  Level Albuquerque Center
08:14PM 34.4083 -107.4681 271° West 409 471 32,000  Level Albuquerque Center
08:15PM 34.4103 -107.6058 271° West 408 470 32,000  Level Albuquerque Center
08:16PM 34.4122 -107.7431 271° West 407 468 32,000  Level Albuquerque Center
08:17PM 34.4147 -107.9075 271° West 407 468 32,000  Level Albuquerque Center
08:18PM 34.4139 -108.0444 270° West 406 467 32,000  Level Albuquerque Center
08:20PM 34.4128 -108.1819 269° West 408 470 32,000  Level Albuquerque Center
08:21PM 34.4117 -108.3161 269° West 404 465 32,000  Level Albuquerque Center
08:22PM 34.4111 -108.4519 270° West 402 463 32,000  Level Albuquerque Center
08:23PM 34.4097 -108.6061 269° West 397 457 32,000  Level Albuquerque Center
08:24PM 34.4078 -108.7333 269° West 395 455 32,000  Level Albuquerque Center
08:25PM 34.4067 -108.8619 269° West 397 457 32,000  Level Albuquerque Center
08:26PM 34.4033 -109.0103 268° West 396 456 32,000  Level Albuquerque Center
08:27PM 34.4017 -109.1372 269° West 395 455 32,000  Level Albuquerque Center
08:28PM 34.3997 -109.2878 269° West 397 457 32,000  Level Albuquerque Center
08:29PM 34.3967 -109.4169 268° West 400 460 32,000  Level Albuquerque Center
08:30PM 34.3942 -109.5689 269° West 401 461 32,000 600 Level Albuquerque Center
08:31PM 34.3917 -109.6964 269° West 399 459 33,300 1,380 Climbing Albuquerque Center
08:32PM 34.3892 -109.8233 269° West 395 455 34,900 1,260 Climbing Albuquerque Center
08:33PM 34.3856 -109.9667 268° West 386 444 36,000 480 Climbing Albuquerque Center
08:34PM 34.3828 -110.0897 268° West 383 441 36,000 240 Level Albuquerque Center
08:35PM 34.3792 -110.2350 268° West 385 443 36,600 540 Climbing Albuquerque Center
08:36PM 34.3753 -110.3619 268° West 390 449 37,200 660 Climbing Albuquerque Center
08:37PM 34.3731 -110.4922 269° West 399 459 38,000 360 Climbing Albuquerque Center
08:38PM 34.3717 -110.6231 269° West 394 453 38,000  Level Albuquerque Center
08:39PM 34.3636 -110.7483 266° West 382 440 38,000  Level Albuquerque Center
08:40PM 34.3586 -110.9017 268° West 381 438 38,000  Level Albuquerque Center
08:41PM 34.3547 -111.0278 268° West 378 435 38,000  Level Albuquerque Center
08:42PM 34.3508 -111.1567 268° West 382 440 38,000  Level Albuquerque Center
08:43PM 34.3464 -111.2842 268° West 382 440 38,000  Level Albuquerque Center
08:44PM 34.3425 -111.4114 268° West 381 438 38,000  Level Albuquerque Center
08:45PM 34.3372 -111.5386 267° West 382 440 38,000  Level Albuquerque Center
08:46PM 34.3325 -111.6661 267° West 383 441 38,000  Level Albuquerque Center
08:47PM 34.3272 -111.8181 268° West 382 440 38,000  Level Albuquerque Center
08:48PM 34.3225 -111.9436 267° West 380 437 38,000  Level Albuquerque Center
08:49PM 34.3167 -112.0683 267° West 377 434 38,000  Level Albuquerque Center
08:50PM 34.3119 -112.1942 267° West 377 434 38,000  Level Albuquerque Center
08:51PM 34.3067 -112.3206 267° West 378 435 38,000  Level Albuquerque Center
08:52PM 34.3017 -112.4469 267° West 378 435 38,000  Level Albuquerque Center
08:53PM 34.2953 -112.5997 267° West 380 437 38,000  Level Albuquerque Center
08:54PM 34.2889 -112.7283 267° West 383 441 38,000  Level Albuquerque Center
08:55PM 34.2825 -112.8581 267° West 386 444 38,000  Level Albuquerque Center
08:56PM 34.2767 -112.9858 267° West 385 443 38,000  Level Albuquerque Center
08:58PM 34.2706 -113.1119 267° West 379 436 38,000  Level Albuquerque Center
08:59PM 34.2647 -113.2367 267° West 376 433 38,000  Level Albuquerque Center
09:00PM 34.2583 -113.3633 267° West 377 434 38,000  Level Albuquerque Center
09:01PM 34.2519 -113.4883 266° West 376 433 38,000  Level Albuquerque Center
09:02PM 34.2444 -113.6244 266° West 376 433 38,000  Level Albuquerque Center
09:03PM 34.2372 -113.7511 266° West 378 435 38,000  Level Albuquerque Center
09:04PM 34.2289 -113.9058 266° West 383 441 38,000  Level Albuquerque Center
09:05PM 34.2214 -114.0339 266° West 383 441 38,000  Level Albuquerque Center
09:06PM 34.2144 -114.1619 266° West 382 440 38,000  Level Albuquerque Center
09:07PM 34.2072 -114.2894 266° West 382 440 38,000 -60 Level Albuquerque Center
09:08PM 34.2031 -114.3925 267° West 382 440 37,900  Descending Los Angeles Center
09:09PM 34.1944 -114.5183 265° West 378 435 38,000  Climbing Los Angeles Center
09:10PM 34.1875 -114.6458 266° West 377 434 38,000  Level Los Angeles Center
09:11PM 34.1797 -114.7719 266° West 381 438 38,000 -60 Level Los Angeles Center
09:12PM 34.1714 -114.8986 265° West 380 437 37,900 -60 Descending Los Angeles Center
09:13PM 34.1619 -115.0519 266° West 384 442 37,900  Level Los Angeles Center
09:14PM 34.1536 -115.1786 265° West 382 440 38,000  Climbing Los Angeles Center
09:15PM 34.1447 -115.3047 265° West 380 437 38,000  Level Los Angeles Center
09:16PM 34.1361 -115.4339 265° West 385 443 38,000  Level Los Angeles Center
09:17PM 34.1267 -115.5628 265° West 387 445 38,000 -60 Level Los Angeles Center
09:18PM 34.1194 -115.6906 266° West 385 443 37,900 -540 Descending Los Angeles Center
09:19PM 34.0983 -115.8686 262° West 384 442 36,900 -960 Descending Los Angeles Center
09:20PM 34.0792 -115.9975 260° West 390 449 36,000 -1,020 Descending Los Angeles Center
09:21PM 34.0592 -116.1261 259° West 392 451 34,900 -1,980 Descending Los Angeles Center
09:22PM 34.0400 -116.2586 260° West 400 460 32,000 -2,760 Descending Los Angeles Center
09:23PM 34.0197 -116.3942 260° West 410 472 29,300 -2,460 Descending Los Angeles Center
09:24PM 34.0022 -116.5247 261° West 399 459 27,000 -2,460 Descending Los Angeles Center
09:25PM 33.9908 -116.6750 265° West 379 436 24,300 -2,340 Descending Los Angeles Center
09:26PM 33.9806 -116.7969 264° West 370 426 22,200 -2,040 Descending Los Angeles Center
09:27PM 33.9711 -116.9156 265° West 361 415 20,100 -2,280 Descending Los Angeles Center
09:28PM 33.9667 -116.9667 264° West 351 404 19,200 -2,280 Descending Southern California TRACON
09:29PM 33.9500 -117.0833 260° West 358 412 17,100 -1,500 Descending Southern California TRACON
09:30PM 33.9500 -117.2000 270° West 332 382 16,300 -840 Descending Southern California TRACON
09:31PM 33.9333 -117.3167 260° West 339 390 15,500 -900 Descending Southern California TRACON
09:32PM 33.9500 -117.4167 281° West 326 375 14,600 -1,140 Descending Southern California TRACON
09:33PM 33.9833 -117.5167 292° West 310 357 13,300 -1,500 Descending Southern California TRACON
09:34PM 34.0167 -117.6167 292° West 347 399 11,600 -1,800 Descending Southern California TRACON
09:35PM 34.0000 -117.7167 259° West 279 321 9,700 -1,560 Descending Southern California TRACON
09:36PM 34.0000 -117.8000 270° West 287 330 8,500 -1,320 Descending Southern California TRACON
09:37PM 33.9833 -117.9000 259° West 284 327 7,100 -1,260 Descending Southern California TRACON
09:38PM 33.9833 -118.0000 270° West 263 303 5,900 -960 Descending Southern California TRACON
09:39PM 33.9667 -118.0833 256° West 210 242 5,100 -900 Descending Southern California TRACON
09:40PM 33.9633 -118.1311 265° West 204 235 4,200 -1,020 Descending Los Angeles Center